sensor_id;sensor_type;location;lat;lon;timestamp;P1;durP1;ratioP1;P2;durP2;ratioP2
43678;SDS011;29279;50.858;4.392;2024-02-16T00:02:00;6.40;;;2.40;;
43678;SDS011;29279;50.858;4.392;2024-02-16T00:04:26;5.05;;;2.38;;
43678;SDS011;29279;50.858;4.392;2024-02-16T00:06:52;5.30;;;2.65;;
43678;SDS011;29279;50.858;4.392;2024-02-16T00:09:18;4.13;;;2.35;;
43678;SDS011;29279;50.858;4.392;2024-02-16T00:11:43;4.53;;;2.20;;
43678;SDS011;29279;50.858;4.392;2024-02-16T00:14:10;4.65;;;2.20;;
43678;SDS011;29279;50.858;4.392;2024-02-16T00:16:35;4.45;;;2.13;;
43678;SDS011;29279;50.858;4.392;2024-02-16T00:19:01;6.07;;;2.50;;
43678;SDS011;29279;50.858;4.392;2024-02-16T00:21:27;3.63;;;1.90;;
43678;SDS011;29279;50.858;4.392;2024-02-16T00:23:54;5.30;;;2.20;;
43678;SDS011;29279;50.858;4.392;2024-02-16T00:26:19;6.88;;;2.38;;
43678;SDS011;29279;50.858;4.392;2024-02-16T00:28:46;5.55;;;2.30;;
43678;SDS011;29279;50.858;4.392;2024-02-16T00:31:12;6.32;;;2.08;;
43678;SDS011;29279;50.858;4.392;2024-02-16T00:33:38;6.13;;;2.13;;
43678;SDS011;29279;50.858;4.392;2024-02-16T00:36:03;5.10;;;2.25;;
43678;SDS011;29279;50.858;4.392;2024-02-16T00:38:29;5.15;;;2.00;;
43678;SDS011;29279;50.858;4.392;2024-02-16T00:40:55;7.45;;;2.03;;
43678;SDS011;29279;50.858;4.392;2024-02-16T00:43:20;4.43;;;2.25;;
43678;SDS011;29279;50.858;4.392;2024-02-16T00:45:46;5.63;;;2.38;;
43678;SDS011;29279;50.858;4.392;2024-02-16T00:48:13;4.82;;;2.42;;
43678;SDS011;29279;50.858;4.392;2024-02-16T00:50:39;5.18;;;2.03;;
43678;SDS011;29279;50.858;4.392;2024-02-16T00:53:04;7.07;;;2.20;;
43678;SDS011;29279;50.858;4.392;2024-02-16T00:55:30;6.15;;;2.70;;
43678;SDS011;29279;50.858;4.392;2024-02-16T00:57:56;6.07;;;2.13;;
43678;SDS011;29279;50.858;4.392;2024-02-16T01:00:22;6.53;;;2.47;;
43678;SDS011;29279;50.858;4.392;2024-02-16T01:02:51;4.63;;;2.42;;
43678;SDS011;29279;50.858;4.392;2024-02-16T01:05:19;7.68;;;2.63;;
43678;SDS011;29279;50.858;4.392;2024-02-16T01:07:45;4.80;;;2.40;;
43678;SDS011;29279;50.858;4.392;2024-02-16T01:10:11;5.15;;;2.45;;
43678;SDS011;29279;50.858;4.392;2024-02-16T01:12:40;4.70;;;2.20;;
43678;SDS011;29279;50.858;4.392;2024-02-16T01:15:05;4.57;;;2.15;;
43678;SDS011;29279;50.858;4.392;2024-02-16T01:17:31;4.53;;;2.30;;
43678;SDS011;29279;50.858;4.392;2024-02-16T01:19:57;5.20;;;2.50;;
43678;SDS011;29279;50.858;4.392;2024-02-16T01:22:23;6.50;;;2.70;;
43678;SDS011;29279;50.858;4.392;2024-02-16T01:24:49;6.68;;;2.22;;
43678;SDS011;29279;50.858;4.392;2024-02-16T01:27:15;7.50;;;2.50;;
43678;SDS011;29279;50.858;4.392;2024-02-16T01:29:41;7.90;;;2.33;;
43678;SDS011;29279;50.858;4.392;2024-02-16T01:32:07;7.53;;;2.58;;
43678;SDS011;29279;50.858;4.392;2024-02-16T01:34:33;7.28;;;2.25;;
43678;SDS011;29279;50.858;4.392;2024-02-16T01:36:59;8.15;;;2.20;;
43678;SDS011;29279;50.858;4.392;2024-02-16T01:39:25;6.32;;;2.50;;
43678;SDS011;29279;50.858;4.392;2024-02-16T01:41:50;5.30;;;2.13;;
43678;SDS011;29279;50.858;4.392;2024-02-16T01:44:16;3.30;;;1.83;;
43678;SDS011;29279;50.858;4.392;2024-02-16T01:46:42;5.03;;;2.42;;
43678;SDS011;29279;50.858;4.392;2024-02-16T01:49:08;4.68;;;2.38;;
43678;SDS011;29279;50.858;4.392;2024-02-16T01:51:35;5.78;;;2.42;;
43678;SDS011;29279;50.858;4.392;2024-02-16T01:54:02;6.75;;;2.60;;
43678;SDS011;29279;50.858;4.392;2024-02-16T01:56:28;12.50;;;2.90;;
43678;SDS011;29279;50.858;4.392;2024-02-16T01:58:54;5.50;;;2.97;;
43678;SDS011;29279;50.858;4.392;2024-02-16T02:01:20;5.45;;;2.50;;
43678;SDS011;29279;50.858;4.392;2024-02-16T02:03:46;5.05;;;2.45;;
43678;SDS011;29279;50.858;4.392;2024-02-16T02:06:11;10.60;;;2.70;;
43678;SDS011;29279;50.858;4.392;2024-02-16T02:08:37;5.15;;;2.20;;
43678;SDS011;29279;50.858;4.392;2024-02-16T02:11:03;5.85;;;2.67;;
43678;SDS011;29279;50.858;4.392;2024-02-16T02:13:28;6.60;;;2.58;;
43678;SDS011;29279;50.858;4.392;2024-02-16T02:15:55;7.30;;;2.42;;
43678;SDS011;29279;50.858;4.392;2024-02-16T02:18:23;6.85;;;2.70;;
43678;SDS011;29279;50.858;4.392;2024-02-16T02:20:49;7.45;;;2.40;;
43678;SDS011;29279;50.858;4.392;2024-02-16T02:23:15;8.63;;;2.20;;
43678;SDS011;29279;50.858;4.392;2024-02-16T02:25:41;7.53;;;3.10;;
43678;SDS011;29279;50.858;4.392;2024-02-16T02:28:07;5.55;;;3.17;;
43678;SDS011;29279;50.858;4.392;2024-02-16T02:30:33;6.28;;;2.50;;
43678;SDS011;29279;50.858;4.392;2024-02-16T02:32:59;7.00;;;2.58;;
43678;SDS011;29279;50.858;4.392;2024-02-16T02:35:24;6.43;;;2.88;;
43678;SDS011;29279;50.858;4.392;2024-02-16T02:37:50;7.88;;;2.83;;
43678;SDS011;29279;50.858;4.392;2024-02-16T02:40:16;6.00;;;2.40;;
43678;SDS011;29279;50.858;4.392;2024-02-16T02:42:41;6.15;;;2.38;;
43678;SDS011;29279;50.858;4.392;2024-02-16T02:45:08;5.70;;;2.40;;
43678;SDS011;29279;50.858;4.392;2024-02-16T02:47:34;5.82;;;2.13;;
43678;SDS011;29279;50.858;4.392;2024-02-16T02:49:59;6.97;;;2.50;;
43678;SDS011;29279;50.858;4.392;2024-02-16T02:52:25;6.95;;;2.83;;
43678;SDS011;29279;50.858;4.392;2024-02-16T02:54:51;5.85;;;2.22;;
43678;SDS011;29279;50.858;4.392;2024-02-16T02:57:16;7.53;;;2.65;;
43678;SDS011;29279;50.858;4.392;2024-02-16T02:59:42;8.80;;;2.53;;
43678;SDS011;29279;50.858;4.392;2024-02-16T03:02:08;7.22;;;2.65;;
43678;SDS011;29279;50.858;4.392;2024-02-16T03:04:35;7.22;;;2.70;;
43678;SDS011;29279;50.858;4.392;2024-02-16T03:07:01;6.45;;;2.80;;
43678;SDS011;29279;50.858;4.392;2024-02-16T03:09:26;8.52;;;2.45;;
43678;SDS011;29279;50.858;4.392;2024-02-16T03:11:52;7.28;;;2.50;;
43678;SDS011;29279;50.858;4.392;2024-02-16T03:14:18;8.32;;;2.75;;
43678;SDS011;29279;50.858;4.392;2024-02-16T03:16:43;11.20;;;2.83;;
43678;SDS011;29279;50.858;4.392;2024-02-16T03:19:09;9.65;;;2.55;;
43678;SDS011;29279;50.858;4.392;2024-02-16T03:21:35;12.18;;;2.78;;
43678;SDS011;29279;50.858;4.392;2024-02-16T03:24:01;8.50;;;2.83;;
43678;SDS011;29279;50.858;4.392;2024-02-16T03:26:27;7.90;;;2.60;;
43678;SDS011;29279;50.858;4.392;2024-02-16T03:28:53;7.78;;;2.40;;
43678;SDS011;29279;50.858;4.392;2024-02-16T03:31:19;6.68;;;2.35;;
43678;SDS011;29279;50.858;4.392;2024-02-16T03:33:46;6.13;;;2.85;;
43678;SDS011;29279;50.858;4.392;2024-02-16T03:36:12;4.20;;;2.40;;
43678;SDS011;29279;50.858;4.392;2024-02-16T03:38:47;9.00;;;3.05;;
43678;SDS011;29279;50.858;4.392;2024-02-16T03:41:21;7.00;;;2.80;;
43678;SDS011;29279;50.858;4.392;2024-02-16T03:43:48;5.40;;;2.67;;
43678;SDS011;29279;50.858;4.392;2024-02-16T03:46:15;7.05;;;2.78;;
43678;SDS011;29279;50.858;4.392;2024-02-16T03:48:41;6.18;;;2.58;;
43678;SDS011;29279;50.858;4.392;2024-02-16T03:51:07;7.35;;;2.65;;
43678;SDS011;29279;50.858;4.392;2024-02-16T03:53:32;8.88;;;3.08;;
43678;SDS011;29279;50.858;4.392;2024-02-16T03:55:59;6.13;;;3.00;;
43678;SDS011;29279;50.858;4.392;2024-02-16T03:58:24;4.75;;;2.55;;
43678;SDS011;29279;50.858;4.392;2024-02-16T04:00:51;9.52;;;3.30;;
43678;SDS011;29279;50.858;4.392;2024-02-16T04:03:20;9.55;;;2.92;;
43678;SDS011;29279;50.858;4.392;2024-02-16T04:05:46;9.70;;;2.65;;
43678;SDS011;29279;50.858;4.392;2024-02-16T04:08:11;7.45;;;2.80;;
43678;SDS011;29279;50.858;4.392;2024-02-16T04:10:37;9.02;;;2.85;;
43678;SDS011;29279;50.858;4.392;2024-02-16T04:13:03;11.55;;;3.03;;
43678;SDS011;29279;50.858;4.392;2024-02-16T04:15:29;6.88;;;3.00;;
43678;SDS011;29279;50.858;4.392;2024-02-16T04:17:54;6.40;;;2.65;;
43678;SDS011;29279;50.858;4.392;2024-02-16T04:20:20;6.95;;;2.78;;
43678;SDS011;29279;50.858;4.392;2024-02-16T04:22:46;12.05;;;2.53;;
43678;SDS011;29279;50.858;4.392;2024-02-16T04:25:12;8.55;;;3.42;;
43678;SDS011;29279;50.858;4.392;2024-02-16T04:27:38;8.52;;;2.83;;
43678;SDS011;29279;50.858;4.392;2024-02-16T04:30:04;5.35;;;2.58;;
43678;SDS011;29279;50.858;4.392;2024-02-16T04:32:31;9.07;;;3.10;;
43678;SDS011;29279;50.858;4.392;2024-02-16T04:34:57;7.32;;;3.00;;
43678;SDS011;29279;50.858;4.392;2024-02-16T04:37:25;10.30;;;2.90;;
43678;SDS011;29279;50.858;4.392;2024-02-16T04:39:51;10.75;;;3.30;;
43678;SDS011;29279;50.858;4.392;2024-02-16T04:42:17;7.68;;;2.83;;
43678;SDS011;29279;50.858;4.392;2024-02-16T04:44:43;8.10;;;2.70;;
43678;SDS011;29279;50.858;4.392;2024-02-16T04:47:09;9.13;;;2.95;;
43678;SDS011;29279;50.858;4.392;2024-02-16T04:49:36;4.82;;;2.60;;
43678;SDS011;29279;50.858;4.392;2024-02-16T04:52:02;9.63;;;2.78;;
43678;SDS011;29279;50.858;4.392;2024-02-16T04:54:28;6.38;;;2.40;;
43678;SDS011;29279;50.858;4.392;2024-02-16T04:56:54;7.57;;;2.60;;
43678;SDS011;29279;50.858;4.392;2024-02-16T04:59:20;6.85;;;2.70;;
43678;SDS011;29279;50.858;4.392;2024-02-16T05:01:47;8.60;;;2.97;;
43678;SDS011;29279;50.858;4.392;2024-02-16T05:04:13;6.32;;;2.72;;
43678;SDS011;29279;50.858;4.392;2024-02-16T05:06:42;12.32;;;2.75;;
43678;SDS011;29279;50.858;4.392;2024-02-16T05:09:08;10.00;;;3.05;;
43678;SDS011;29279;50.858;4.392;2024-02-16T05:11:34;7.80;;;3.20;;
43678;SDS011;29279;50.858;4.392;2024-02-16T05:14:00;9.23;;;2.90;;
43678;SDS011;29279;50.858;4.392;2024-02-16T05:16:26;8.68;;;2.92;;
43678;SDS011;29279;50.858;4.392;2024-02-16T05:18:52;8.13;;;2.85;;
43678;SDS011;29279;50.858;4.392;2024-02-16T05:21:18;9.82;;;3.20;;
43678;SDS011;29279;50.858;4.392;2024-02-16T05:23:43;8.00;;;2.83;;
43678;SDS011;29279;50.858;4.392;2024-02-16T05:26:09;10.48;;;2.90;;
43678;SDS011;29279;50.858;4.392;2024-02-16T05:28:35;7.00;;;2.80;;
43678;SDS011;29279;50.858;4.392;2024-02-16T05:31:12;7.28;;;2.78;;
43678;SDS011;29279;50.858;4.392;2024-02-16T05:33:43;6.35;;;3.20;;
43678;SDS011;29279;50.858;4.392;2024-02-16T05:36:10;7.57;;;2.83;;
43678;SDS011;29279;50.858;4.392;2024-02-16T05:38:36;9.18;;;2.78;;
43678;SDS011;29279;50.858;4.392;2024-02-16T05:41:09;8.85;;;2.60;;
43678;SDS011;29279;50.858;4.392;2024-02-16T05:43:36;9.73;;;3.22;;
43678;SDS011;29279;50.858;4.392;2024-02-16T05:46:03;8.65;;;3.13;;
43678;SDS011;29279;50.858;4.392;2024-02-16T05:48:31;7.97;;;3.33;;
43678;SDS011;29279;50.858;4.392;2024-02-16T05:51:00;5.95;;;2.72;;
43678;SDS011;29279;50.858;4.392;2024-02-16T05:53:26;8.93;;;3.88;;
43678;SDS011;29279;50.858;4.392;2024-02-16T05:55:53;13.13;;;4.32;;
43678;SDS011;29279;50.858;4.392;2024-02-16T05:58:20;14.30;;;3.92;;
43678;SDS011;29279;50.858;4.392;2024-02-16T06:00:46;11.93;;;3.60;;
43678;SDS011;29279;50.858;4.392;2024-02-16T06:03:13;14.73;;;3.50;;
43678;SDS011;29279;50.858;4.392;2024-02-16T06:05:39;9.50;;;3.78;;
43678;SDS011;29279;50.858;4.392;2024-02-16T06:08:10;10.07;;;3.22;;
43678;SDS011;29279;50.858;4.392;2024-02-16T06:10:36;11.32;;;3.30;;
43678;SDS011;29279;50.858;4.392;2024-02-16T06:13:02;10.60;;;3.47;;
43678;SDS011;29279;50.858;4.392;2024-02-16T06:15:28;8.05;;;3.58;;
43678;SDS011;29279;50.858;4.392;2024-02-16T06:17:54;12.02;;;3.70;;
43678;SDS011;29279;50.858;4.392;2024-02-16T06:20:20;8.00;;;3.58;;
43678;SDS011;29279;50.858;4.392;2024-02-16T06:22:46;9.55;;;3.72;;
43678;SDS011;29279;50.858;4.392;2024-02-16T06:25:11;8.35;;;4.13;;
43678;SDS011;29279;50.858;4.392;2024-02-16T06:27:37;11.65;;;4.13;;
43678;SDS011;29279;50.858;4.392;2024-02-16T06:30:03;13.93;;;4.25;;
43678;SDS011;29279;50.858;4.392;2024-02-16T06:32:29;13.88;;;4.15;;
43678;SDS011;29279;50.858;4.392;2024-02-16T06:34:57;13.30;;;4.55;;
43678;SDS011;29279;50.858;4.392;2024-02-16T06:37:24;14.63;;;4.97;;
43678;SDS011;29279;50.858;4.392;2024-02-16T06:39:49;14.40;;;4.93;;
43678;SDS011;29279;50.858;4.392;2024-02-16T06:42:23;11.00;;;4.90;;
43678;SDS011;29279;50.858;4.392;2024-02-16T06:44:48;14.50;;;5.47;;
43678;SDS011;29279;50.858;4.392;2024-02-16T06:47:14;10.30;;;3.90;;
43678;SDS011;29279;50.858;4.392;2024-02-16T06:49:41;14.13;;;4.47;;
43678;SDS011;29279;50.858;4.392;2024-02-16T06:52:07;8.30;;;4.05;;
43678;SDS011;29279;50.858;4.392;2024-02-16T06:54:35;10.10;;;3.88;;
43678;SDS011;29279;50.858;4.392;2024-02-16T06:57:00;11.13;;;4.50;;
43678;SDS011;29279;50.858;4.392;2024-02-16T06:59:26;13.48;;;5.30;;
43678;SDS011;29279;50.858;4.392;2024-02-16T07:01:52;14.40;;;4.53;;
43678;SDS011;29279;50.858;4.392;2024-02-16T07:04:18;11.73;;;5.28;;
43678;SDS011;29279;50.858;4.392;2024-02-16T07:06:44;19.77;;;5.07;;
43678;SDS011;29279;50.858;4.392;2024-02-16T07:09:09;14.90;;;5.15;;
43678;SDS011;29279;50.858;4.392;2024-02-16T07:11:36;12.68;;;4.95;;
43678;SDS011;29279;50.858;4.392;2024-02-16T07:14:02;12.60;;;5.00;;
43678;SDS011;29279;50.858;4.392;2024-02-16T07:16:29;14.18;;;4.97;;
43678;SDS011;29279;50.858;4.392;2024-02-16T07:18:55;19.38;;;5.43;;
43678;SDS011;29279;50.858;4.392;2024-02-16T07:21:21;20.85;;;5.53;;
43678;SDS011;29279;50.858;4.392;2024-02-16T07:23:48;17.90;;;6.07;;
43678;SDS011;29279;50.858;4.392;2024-02-16T07:26:13;15.20;;;5.15;;
43678;SDS011;29279;50.858;4.392;2024-02-16T07:28:39;16.63;;;5.70;;
43678;SDS011;29279;50.858;4.392;2024-02-16T07:31:05;10.88;;;5.05;;
43678;SDS011;29279;50.858;4.392;2024-02-16T07:33:31;15.25;;;5.72;;
43678;SDS011;29279;50.858;4.392;2024-02-16T07:35:56;17.23;;;6.20;;
43678;SDS011;29279;50.858;4.392;2024-02-16T07:38:22;20.02;;;6.50;;
43678;SDS011;29279;50.858;4.392;2024-02-16T07:40:48;19.10;;;6.47;;
43678;SDS011;29279;50.858;4.392;2024-02-16T07:43:15;15.75;;;6.65;;
43678;SDS011;29279;50.858;4.392;2024-02-16T07:45:42;17.27;;;6.07;;
43678;SDS011;29279;50.858;4.392;2024-02-16T07:48:08;17.42;;;6.63;;
43678;SDS011;29279;50.858;4.392;2024-02-16T07:50:33;15.02;;;5.93;;
43678;SDS011;29279;50.858;4.392;2024-02-16T07:52:59;19.05;;;6.63;;
43678;SDS011;29279;50.858;4.392;2024-02-16T07:55:25;15.07;;;6.53;;
43678;SDS011;29279;50.858;4.392;2024-02-16T07:57:51;23.02;;;7.15;;
43678;SDS011;29279;50.858;4.392;2024-02-16T08:00:17;18.60;;;7.47;;
43678;SDS011;29279;50.858;4.392;2024-02-16T08:02:43;22.02;;;7.22;;
43678;SDS011;29279;50.858;4.392;2024-02-16T08:05:12;24.30;;;7.50;;
43678;SDS011;29279;50.858;4.392;2024-02-16T08:07:38;15.95;;;6.60;;
43678;SDS011;29279;50.858;4.392;2024-02-16T08:10:06;20.60;;;6.88;;
43678;SDS011;29279;50.858;4.392;2024-02-16T08:12:32;21.00;;;6.95;;
43678;SDS011;29279;50.858;4.392;2024-02-16T08:14:57;23.25;;;7.80;;
43678;SDS011;29279;50.858;4.392;2024-02-16T08:17:23;15.63;;;6.03;;
43678;SDS011;29279;50.858;4.392;2024-02-16T08:19:53;13.05;;;5.80;;
43678;SDS011;29279;50.858;4.392;2024-02-16T08:22:19;14.63;;;6.10;;
43678;SDS011;29279;50.858;4.392;2024-02-16T08:24:45;15.65;;;6.15;;
43678;SDS011;29279;50.858;4.392;2024-02-16T08:27:15;19.65;;;6.75;;
43678;SDS011;29279;50.858;4.392;2024-02-16T08:29:41;19.00;;;6.20;;
43678;SDS011;29279;50.858;4.392;2024-02-16T08:32:07;18.70;;;6.35;;
43678;SDS011;29279;50.858;4.392;2024-02-16T08:34:34;19.35;;;7.15;;
43678;SDS011;29279;50.858;4.392;2024-02-16T08:37:02;17.15;;;6.40;;
43678;SDS011;29279;50.858;4.392;2024-02-16T08:39:28;19.17;;;6.88;;
43678;SDS011;29279;50.858;4.392;2024-02-16T08:41:55;25.45;;;7.18;;
43678;SDS011;29279;50.858;4.392;2024-02-16T08:44:23;28.73;;;7.60;;
43678;SDS011;29279;50.858;4.392;2024-02-16T08:46:50;17.80;;;6.15;;
43678;SDS011;29279;50.858;4.392;2024-02-16T08:49:16;26.23;;;9.25;;
43678;SDS011;29279;50.858;4.392;2024-02-16T08:51:43;20.67;;;7.32;;
43678;SDS011;29279;50.858;4.392;2024-02-16T08:54:09;21.75;;;7.45;;
43678;SDS011;29279;50.858;4.392;2024-02-16T08:56:35;21.00;;;7.57;;
43678;SDS011;29279;50.858;4.392;2024-02-16T08:59:01;14.70;;;6.90;;
43678;SDS011;29279;50.858;4.392;2024-02-16T09:01:35;57.20;;;9.82;;
43678;SDS011;29279;50.858;4.392;2024-02-16T09:04:02;20.15;;;7.47;;
43678;SDS011;29279;50.858;4.392;2024-02-16T09:06:28;23.55;;;7.45;;
43678;SDS011;29279;50.858;4.392;2024-02-16T09:08:54;20.13;;;7.22;;
43678;SDS011;29279;50.858;4.392;2024-02-16T09:11:20;31.30;;;10.20;;
43678;SDS011;29279;50.858;4.392;2024-02-16T09:13:47;21.42;;;7.93;;
43678;SDS011;29279;50.858;4.392;2024-02-16T09:16:12;28.65;;;8.27;;
43678;SDS011;29279;50.858;4.392;2024-02-16T09:18:38;25.55;;;9.10;;
43678;SDS011;29279;50.858;4.392;2024-02-16T09:21:04;23.85;;;9.43;;
43678;SDS011;29279;50.858;4.392;2024-02-16T09:23:31;28.08;;;10.30;;
43678;SDS011;29279;50.858;4.392;2024-02-16T09:25:58;28.90;;;9.88;;
43678;SDS011;29279;50.858;4.392;2024-02-16T09:28:24;27.30;;;10.60;;
43678;SDS011;29279;50.858;4.392;2024-02-16T09:30:50;35.78;;;10.52;;
43678;SDS011;29279;50.858;4.392;2024-02-16T09:33:16;67.75;;;17.05;;
43678;SDS011;29279;50.858;4.392;2024-02-16T09:35:42;30.52;;;9.93;;
43678;SDS011;29279;50.858;4.392;2024-02-16T09:38:07;28.88;;;9.63;;
43678;SDS011;29279;50.858;4.392;2024-02-16T09:40:35;23.92;;;9.25;;
43678;SDS011;29279;50.858;4.392;2024-02-16T09:43:02;38.88;;;11.45;;
43678;SDS011;29279;50.858;4.392;2024-02-16T09:45:28;25.30;;;10.13;;
43678;SDS011;29279;50.858;4.392;2024-02-16T09:47:55;24.50;;;9.40;;
43678;SDS011;29279;50.858;4.392;2024-02-16T09:50:22;25.92;;;9.02;;
43678;SDS011;29279;50.858;4.392;2024-02-16T09:52:48;22.52;;;8.85;;
43678;SDS011;29279;50.858;4.392;2024-02-16T09:55:16;29.33;;;8.65;;
43678;SDS011;29279;50.858;4.392;2024-02-16T09:57:42;25.60;;;8.60;;
43678;SDS011;29279;50.858;4.392;2024-02-16T10:00:08;19.48;;;7.60;;
43678;SDS011;29279;50.858;4.392;2024-02-16T10:02:45;17.00;;;7.43;;
43678;SDS011;29279;50.858;4.392;2024-02-16T10:05:15;31.42;;;7.93;;
43678;SDS011;29279;50.858;4.392;2024-02-16T10:07:42;15.82;;;6.78;;
43678;SDS011;29279;50.858;4.392;2024-02-16T10:10:21;19.38;;;7.00;;
43678;SDS011;29279;50.858;4.392;2024-02-16T10:12:50;19.15;;;7.15;;
43678;SDS011;29279;50.858;4.392;2024-02-16T10:15:25;30.17;;;7.15;;
43678;SDS011;29279;50.858;4.392;2024-02-16T10:18:27;21.00;;;7.43;;
43678;SDS011;29279;50.858;4.392;2024-02-16T10:20:44;24.17;;;6.32;;
43678;SDS011;29279;50.858;4.392;2024-02-16T10:23:10;20.15;;;7.57;;
43678;SDS011;29279;50.858;4.392;2024-02-16T10:25:40;23.20;;;7.43;;
43678;SDS011;29279;50.858;4.392;2024-02-16T10:28:06;17.30;;;6.75;;
43678;SDS011;29279;50.858;4.392;2024-02-16T10:30:39;20.63;;;6.35;;
43678;SDS011;29279;50.858;4.392;2024-02-16T10:33:09;22.85;;;7.13;;
43678;SDS011;29279;50.858;4.392;2024-02-16T10:35:37;17.40;;;6.65;;
43678;SDS011;29279;50.858;4.392;2024-02-16T10:38:04;25.88;;;8.02;;
43678;SDS011;29279;50.858;4.392;2024-02-16T10:40:38;20.25;;;7.07;;
43678;SDS011;29279;50.858;4.392;2024-02-16T10:43:05;21.50;;;7.05;;
43678;SDS011;29279;50.858;4.392;2024-02-16T10:45:35;23.05;;;7.47;;
43678;SDS011;29279;50.858;4.392;2024-02-16T10:48:02;22.45;;;7.35;;
43678;SDS011;29279;50.858;4.392;2024-02-16T10:50:32;19.27;;;6.43;;
43678;SDS011;29279;50.858;4.392;2024-02-16T10:53:04;24.88;;;7.50;;
43678;SDS011;29279;50.858;4.392;2024-02-16T10:55:41;23.20;;;8.07;;
43678;SDS011;29279;50.858;4.392;2024-02-16T10:58:09;20.02;;;8.57;;
43678;SDS011;29279;50.858;4.392;2024-02-16T11:00:47;18.60;;;7.78;;
43678;SDS011;29279;50.858;4.392;2024-02-16T11:03:23;28.15;;;8.75;;
43678;SDS011;29279;50.858;4.392;2024-02-16T11:05:50;24.88;;;9.90;;
43678;SDS011;29279;50.858;4.392;2024-02-16T11:08:17;24.23;;;8.35;;
43678;SDS011;29279;50.858;4.392;2024-02-16T11:10:57;26.02;;;9.70;;
43678;SDS011;29279;50.858;4.392;2024-02-16T11:13:26;27.88;;;9.23;;
43678;SDS011;29279;50.858;4.392;2024-02-16T11:16:12;18.83;;;9.05;;
43678;SDS011;29279;50.858;4.392;2024-02-16T11:18:42;29.70;;;8.60;;
43678;SDS011;29279;50.858;4.392;2024-02-16T11:21:15;23.30;;;8.90;;
43678;SDS011;29279;50.858;4.392;2024-02-16T11:23:41;26.80;;;9.30;;
43678;SDS011;29279;50.858;4.392;2024-02-16T11:26:11;36.08;;;11.00;;
43678;SDS011;29279;50.858;4.392;2024-02-16T11:28:40;23.75;;;11.18;;
43678;SDS011;29279;50.858;4.392;2024-02-16T11:31:06;31.42;;;12.10;;
43678;SDS011;29279;50.858;4.392;2024-02-16T11:33:32;25.05;;;11.43;;
43678;SDS011;29279;50.858;4.392;2024-02-16T11:35:59;29.10;;;11.48;;
43678;SDS011;29279;50.858;4.392;2024-02-16T11:38:27;27.52;;;11.75;;
43678;SDS011;29279;50.858;4.392;2024-02-16T11:41:05;22.67;;;10.98;;
43678;SDS011;29279;50.858;4.392;2024-02-16T11:43:33;26.45;;;10.93;;
43678;SDS011;29279;50.858;4.392;2024-02-16T11:45:59;26.48;;;11.60;;
43678;SDS011;29279;50.858;4.392;2024-02-16T11:48:35;21.35;;;12.15;;
43678;SDS011;29279;50.858;4.392;2024-02-16T11:51:01;32.83;;;13.05;;
43678;SDS011;29279;50.858;4.392;2024-02-16T11:53:29;26.00;;;12.38;;
43678;SDS011;29279;50.858;4.392;2024-02-16T11:55:55;24.38;;;11.50;;
43678;SDS011;29279;50.858;4.392;2024-02-16T11:58:21;28.15;;;10.65;;
43678;SDS011;29279;50.858;4.392;2024-02-16T12:00:48;20.30;;;9.27;;
43678;SDS011;29279;50.858;4.392;2024-02-16T12:03:19;28.98;;;10.32;;
43678;SDS011;29279;50.858;4.392;2024-02-16T12:05:53;25.23;;;11.38;;
43678;SDS011;29279;50.858;4.392;2024-02-16T12:08:19;27.80;;;10.77;;
43678;SDS011;29279;50.858;4.392;2024-02-16T12:10:47;13.57;;;8.90;;
43678;SDS011;29279;50.858;4.392;2024-02-16T12:13:15;16.20;;;9.90;;
43678;SDS011;29279;50.858;4.392;2024-02-16T12:15:43;20.20;;;10.38;;
43678;SDS011;29279;50.858;4.392;2024-02-16T12:18:19;15.85;;;8.50;;
43678;SDS011;29279;50.858;4.392;2024-02-16T12:23:21;12.35;;;7.90;;
43678;SDS011;29279;50.858;4.392;2024-02-16T12:25:47;13.45;;;8.23;;
43678;SDS011;29279;50.858;4.392;2024-02-16T12:28:13;14.38;;;7.25;;
43678;SDS011;29279;50.858;4.392;2024-02-16T12:30:40;10.60;;;7.15;;
43678;SDS011;29279;50.858;4.392;2024-02-16T12:33:06;12.23;;;7.03;;
43678;SDS011;29279;50.858;4.392;2024-02-16T12:35:31;12.95;;;7.18;;
43678;SDS011;29279;50.858;4.392;2024-02-16T12:37:57;11.00;;;6.63;;
43678;SDS011;29279;50.858;4.392;2024-02-16T12:40:23;9.65;;;7.15;;
43678;SDS011;29279;50.858;4.392;2024-02-16T12:42:48;11.32;;;6.53;;
43678;SDS011;29279;50.858;4.392;2024-02-16T12:45:14;12.57;;;7.13;;
43678;SDS011;29279;50.858;4.392;2024-02-16T12:47:41;11.73;;;7.32;;
43678;SDS011;29279;50.858;4.392;2024-02-16T12:50:07;11.38;;;8.23;;
43678;SDS011;29279;50.858;4.392;2024-02-16T12:52:32;14.43;;;7.65;;
43678;SDS011;29279;50.858;4.392;2024-02-16T12:55:00;12.07;;;7.35;;
43678;SDS011;29279;50.858;4.392;2024-02-16T12:57:26;11.30;;;7.60;;
43678;SDS011;29279;50.858;4.392;2024-02-16T12:59:53;15.65;;;7.93;;
43678;SDS011;29279;50.858;4.392;2024-02-16T13:02:19;12.23;;;8.55;;
43678;SDS011;29279;50.858;4.392;2024-02-16T13:04:45;19.02;;;10.63;;
43678;SDS011;29279;50.858;4.392;2024-02-16T13:07:10;15.55;;;11.65;;
43678;SDS011;29279;50.858;4.392;2024-02-16T13:09:36;13.80;;;10.23;;
43678;SDS011;29279;50.858;4.392;2024-02-16T13:12:02;12.13;;;9.23;;
43678;SDS011;29279;50.858;4.392;2024-02-16T13:14:28;15.57;;;10.15;;
43678;SDS011;29279;50.858;4.392;2024-02-16T13:16:53;16.13;;;9.38;;
43678;SDS011;29279;50.858;4.392;2024-02-16T13:19:19;15.73;;;9.68;;
43678;SDS011;29279;50.858;4.392;2024-02-16T13:21:45;17.30;;;10.27;;
43678;SDS011;29279;50.858;4.392;2024-02-16T13:24:10;12.38;;;9.18;;
43678;SDS011;29279;50.858;4.392;2024-02-16T13:26:36;14.38;;;9.88;;
43678;SDS011;29279;50.858;4.392;2024-02-16T13:29:02;15.98;;;10.32;;
43678;SDS011;29279;50.858;4.392;2024-02-16T13:31:28;12.02;;;9.25;;
43678;SDS011;29279;50.858;4.392;2024-02-16T13:33:57;14.10;;;8.98;;
43678;SDS011;29279;50.858;4.392;2024-02-16T13:36:22;16.00;;;8.75;;
43678;SDS011;29279;50.858;4.392;2024-02-16T13:38:48;13.52;;;8.20;;
43678;SDS011;29279;50.858;4.392;2024-02-16T13:41:14;10.18;;;8.25;;
43678;SDS011;29279;50.858;4.392;2024-02-16T13:43:40;10.38;;;8.13;;
43678;SDS011;29279;50.858;4.392;2024-02-16T13:46:05;10.65;;;8.65;;
43678;SDS011;29279;50.858;4.392;2024-02-16T13:48:31;12.63;;;10.60;;
43678;SDS011;29279;50.858;4.392;2024-02-16T13:50:57;17.58;;;11.55;;
43678;SDS011;29279;50.858;4.392;2024-02-16T13:53:24;19.95;;;13.02;;
43678;SDS011;29279;50.858;4.392;2024-02-16T13:55:50;19.17;;;12.52;;
43678;SDS011;29279;50.858;4.392;2024-02-16T13:58:18;12.20;;;9.43;;
43678;SDS011;29279;50.858;4.392;2024-02-16T14:00:43;12.98;;;9.57;;
43678;SDS011;29279;50.858;4.392;2024-02-16T14:03:09;16.88;;;8.27;;
43678;SDS011;29279;50.858;4.392;2024-02-16T14:05:39;12.38;;;9.20;;
43678;SDS011;29279;50.858;4.392;2024-02-16T14:08:06;8.32;;;6.47;;
43678;SDS011;29279;50.858;4.392;2024-02-16T14:10:34;9.57;;;6.53;;
43678;SDS011;29279;50.858;4.392;2024-02-16T14:13:02;9.88;;;5.97;;
43678;SDS011;29279;50.858;4.392;2024-02-16T14:15:27;14.70;;;6.22;;
43678;SDS011;29279;50.858;4.392;2024-02-16T14:17:53;9.13;;;5.25;;
43678;SDS011;29279;50.858;4.392;2024-02-16T14:20:19;8.05;;;5.10;;
43678;SDS011;29279;50.858;4.392;2024-02-16T14:22:46;5.90;;;4.18;;
43678;SDS011;29279;50.858;4.392;2024-02-16T14:25:12;6.07;;;4.82;;
43678;SDS011;29279;50.858;4.392;2024-02-16T14:27:38;9.73;;;4.18;;
43678;SDS011;29279;50.858;4.392;2024-02-16T14:30:05;4.93;;;3.53;;
43678;SDS011;29279;50.858;4.392;2024-02-16T14:32:32;8.40;;;4.57;;
43678;SDS011;29279;50.858;4.392;2024-02-16T14:34:58;9.63;;;3.83;;
43678;SDS011;29279;50.858;4.392;2024-02-16T14:37:24;6.88;;;3.58;;
43678;SDS011;29279;50.858;4.392;2024-02-16T14:39:50;4.05;;;2.75;;